• Join FlightAware (Why Join?)
  • Login
  • US Flag 
01:35PM EST


 

Airport Tracker/Info


-or-


 

Live Flight TrackerFlight Track Log ✈ KAP17 ✈ 11-May-2013 ✈ KBOS - KLEB

Flight Track Log - Related Links

Times and Time Zones

All times are in EDT time to prevent confusion due to time zone crossing. See the KAP17 flight status page for this flight to view local times or setup timezone preferences in your user account.

Time Position Orientation Groundspeed Altitude Reporting Facility
EDT Latitude Longitude Course Direction KTS MPH feet Rate Location/Type
12:49PM 42.3667 -71.0167 270° West 104 120 500  Level KA90
12:50PM 42.3667 -71.0500 270° West 123 142 1,400 780 Climbing KA90
12:51PM 42.3667 -71.1000 270° West 121 139 2,100 600 Climbing KA90
12:52PM 42.3833 -71.1333 304° West 121 139 2,600 540 Climbing KA90
12:53PM 42.4167 -71.1667 324° Northwest 155 178 3,200 480 Climbing KA90
12:54PM 42.4667 -71.1667 360° North 154 177 3,600 540 Climbing KA90
12:55PM 42.5000 -71.1833 340° North 148 170 4,300 540 Climbing KA90
12:56PM 42.5333 -71.2167 324° Northwest 146 168 4,700 300 Climbing KA90
12:57PM 42.5667 -71.2333 340° North 154 177 5,000 360 Climbing KA90
12:58PM 42.6167 -71.2500 346° North 161 185 5,500 420 Climbing KA90
12:59PM 42.6500 -71.2667 340° North 154 177 5,900 240 Climbing KA90
01:00PM 42.7000 -71.2833 346° North 167 192 6,000  Climbing KA90
01:01PM 42.7333 -71.3167 324° Northwest 163 188 6,000  Level KA90
01:02PM 42.7667 -71.3500 324° Northwest 149 171 6,100  Climbing KA90
01:03PM 42.8000 -71.3833 324° Northwest 153 176 6,100  Level KA90
01:04PM 42.8333 -71.4167 324° Northwest 153 176 6,100  Level KA90
01:05PM 42.8667 -71.4500 324° Northwest 154 177 6,100  Level KA90
01:06PM 42.9000 -71.5000 312° West 155 178 6,100  Level KA90
01:07PM 42.9333 -71.5333 324° Northwest 155 178 6,100  Level KA90
01:08PM 42.9667 -71.5667 324° Northwest 154 177 6,100  Level KA90
01:09PM 43.0000 -71.6000 324° Northwest 153 176 6,100 -60 Level KA90
01:10PM 43.0394 -71.6447 320° Northwest 166 191 6,000 -60 Descending Boston Center
01:11PM 43.0753 -71.6869 319° Northwest 161 185 6,000  Level Boston Center
01:12PM 43.1047 -71.7206 320° Northwest 161 185 6,000  Level Boston Center
01:13PM 43.1425 -71.7600 323° Northwest 156 180 6,000  Level Boston Center
01:14PM 43.1717 -71.7939 320° Northwest 156 180 6,000  Level Boston Center
01:15PM 43.2075 -71.8333 321° Northwest 156 180 6,000  Level Boston Center
01:16PM 43.2367 -71.8672 320° Northwest 156 180 6,000  Level Boston Center
01:17PM 43.2744 -71.9097 321° Northwest 162 186 6,000  Level Boston Center
01:18PM 43.3058 -71.9436 322° Northwest 161 185 6,000  Level Boston Center
01:19PM 43.3500 -71.9947 320° Northwest 161 185 6,000  Level Boston Center
01:20PM 43.3833 -72.0317 321° Northwest 161 185 6,000  Level Boston Center
01:21PM 43.4189 -72.0600 330° Northwest 161 185 6,000  Level Boston Center
01:22PM 43.4564 -72.0939 327° Northwest 156 180 6,000  Level Boston Center
01:23PM 43.4942 -72.1281 327° Northwest 156 180 6,000  Level Boston Center
01:24PM 43.5317 -72.1594 329° Northwest 156 180 6,000  Level Boston Center
01:25PM 43.5714 -72.1908 330° Northwest 156 180 6,000 -120 Level Boston Center
01:26PM 43.6028 -72.2194 327° Northwest 156 180 5,800 -300 Descending Boston Center
01:27PM 43.6528 -72.2650 327° Northwest 167 192 5,500 -180 Descending Boston Center
01:28PM 43.6925 -72.2964 330° Northwest 167 192 5,500  Level Boston Center
01:29PM 43.7300 -72.3308 326° Northwest 167 192 5,500 -300 Level Boston Center
01:30PM 43.7819 -72.3422 351° North 167 192 5,000 -480 Descending Boston Center
01:31PM 43.8300 -72.3250 14° North 172 198 4,600 -240 Descending Boston Center
01:32PM 43.8819 -72.3306 356° North 172 198 4,600 660 Level Boston Center
01:33PM 43.8278 -72.3422 189° South 172 198 6,000 -360 Climbing Boston Center
01:34PM 43.7819 -72.3367 175° South 155 178 3,900 -1,500 Descending Boston Center
01:35PM 43.7467 -72.3339 177° South 155 178 3,100 -600 Descending Boston Center
01:36PM 43.7092 -72.3308 177° South 150 173 2,800 -300 Descending Boston Center